sensor_id;sensor_type;location;lat;lon;timestamp;P1;durP1;ratioP1;P2;durP2;ratioP2
8159;SDS011;27404;52.398;9.646;2022-12-31T00:01:06;1.50;;;1.07;;
8159;SDS011;27404;52.398;9.646;2022-12-31T00:03:34;2.23;;;1.30;;
8159;SDS011;27404;52.398;9.646;2022-12-31T00:06:00;1.57;;;1.10;;
8159;SDS011;27404;52.398;9.646;2022-12-31T00:08:26;1.73;;;1.20;;
8159;SDS011;27404;52.398;9.646;2022-12-31T00:10:51;1.40;;;1.10;;
8159;SDS011;27404;52.398;9.646;2022-12-31T00:13:17;1.37;;;1.10;;
8159;SDS011;27404;52.398;9.646;2022-12-31T00:15:42;1.23;;;1.00;;
8159;SDS011;27404;52.398;9.646;2022-12-31T00:18:08;1.10;;;1.00;;
8159;SDS011;27404;52.398;9.646;2022-12-31T00:20:37;1.63;;;0.97;;
8159;SDS011;27404;52.398;9.646;2022-12-31T00:23:03;1.33;;;1.10;;
8159;SDS011;27404;52.398;9.646;2022-12-31T00:25:29;2.37;;;1.03;;
8159;SDS011;27404;52.398;9.646;2022-12-31T00:27:54;1.67;;;1.20;;
8159;SDS011;27404;52.398;9.646;2022-12-31T00:30:20;3.33;;;2.10;;
8159;SDS011;27404;52.398;9.646;2022-12-31T00:32:45;1.47;;;1.17;;
8159;SDS011;27404;52.398;9.646;2022-12-31T00:35:11;1.53;;;1.00;;
8159;SDS011;27404;52.398;9.646;2022-12-31T00:37:36;1.37;;;1.03;;
8159;SDS011;27404;52.398;9.646;2022-12-31T00:40:02;1.17;;;0.90;;
8159;SDS011;27404;52.398;9.646;2022-12-31T00:42:28;1.10;;;1.00;;
8159;SDS011;27404;52.398;9.646;2022-12-31T00:44:53;1.67;;;1.13;;
8159;SDS011;27404;52.398;9.646;2022-12-31T00:47:19;1.30;;;1.20;;
8159;SDS011;27404;52.398;9.646;2022-12-31T00:49:44;2.57;;;1.30;;
8159;SDS011;27404;52.398;9.646;2022-12-31T00:52:10;2.40;;;1.10;;
8159;SDS011;27404;52.398;9.646;2022-12-31T00:54:37;1.47;;;1.20;;
8159;SDS011;27404;52.398;9.646;2022-12-31T00:57:03;1.97;;;1.30;;
8159;SDS011;27404;52.398;9.646;2022-12-31T00:59:28;1.63;;;1.30;;
8159;SDS011;27404;52.398;9.646;2022-12-31T01:01:54;1.40;;;1.00;;
8159;SDS011;27404;52.398;9.646;2022-12-31T01:04:19;1.70;;;1.40;;
8159;SDS011;27404;52.398;9.646;2022-12-31T01:06:45;1.50;;;1.20;;
8159;SDS011;27404;52.398;9.646;2022-12-31T01:09:11;1.60;;;1.00;;
8159;SDS011;27404;52.398;9.646;2022-12-31T01:11:39;1.70;;;1.13;;
8159;SDS011;27404;52.398;9.646;2022-12-31T01:14:06;3.03;;;0.90;;
8159;SDS011;27404;52.398;9.646;2022-12-31T01:19:03;1.47;;;0.90;;
8159;SDS011;27404;52.398;9.646;2022-12-31T01:21:32;1.60;;;1.40;;
8159;SDS011;27404;52.398;9.646;2022-12-31T01:23:58;2.90;;;1.80;;
8159;SDS011;27404;52.398;9.646;2022-12-31T01:26:24;4.43;;;1.87;;
8159;SDS011;27404;52.398;9.646;2022-12-31T01:28:50;1.87;;;1.40;;
8159;SDS011;27404;52.398;9.646;2022-12-31T01:31:16;1.67;;;1.30;;
8159;SDS011;27404;52.398;9.646;2022-12-31T01:33:43;2.10;;;1.30;;
8159;SDS011;27404;52.398;9.646;2022-12-31T01:38:35;1.27;;;1.10;;
8159;SDS011;27404;52.398;9.646;2022-12-31T01:41:01;1.27;;;1.10;;
8159;SDS011;27404;52.398;9.646;2022-12-31T01:43:41;1.20;;;1.03;;
8159;SDS011;27404;52.398;9.646;2022-12-31T01:46:10;1.40;;;1.10;;
8159;SDS011;27404;52.398;9.646;2022-12-31T01:48:38;1.17;;;1.00;;
8159;SDS011;27404;52.398;9.646;2022-12-31T01:51:04;1.50;;;1.10;;
8159;SDS011;27404;52.398;9.646;2022-12-31T01:53:33;1.60;;;1.20;;
8159;SDS011;27404;52.398;9.646;2022-12-31T01:55:59;1.40;;;1.00;;
8159;SDS011;27404;52.398;9.646;2022-12-31T01:58:32;2.33;;;1.00;;
8159;SDS011;27404;52.398;9.646;2022-12-31T02:01:03;1.07;;;0.70;;
8159;SDS011;27404;52.398;9.646;2022-12-31T02:03:30;1.60;;;0.80;;
8159;SDS011;27404;52.398;9.646;2022-12-31T02:09:00;1.03;;;0.70;;
8159;SDS011;27404;52.398;9.646;2022-12-31T02:11:27;0.80;;;0.60;;
8159;SDS011;27404;52.398;9.646;2022-12-31T02:13:54;1.50;;;0.90;;
8159;SDS011;27404;52.398;9.646;2022-12-31T02:21:44;0.90;;;0.63;;
8159;SDS011;27404;52.398;9.646;2022-12-31T02:26:53;1.40;;;0.97;;
8159;SDS011;27404;52.398;9.646;2022-12-31T02:35:13;1.03;;;0.70;;
8159;SDS011;27404;52.398;9.646;2022-12-31T02:37:45;1.20;;;1.00;;
8159;SDS011;27404;52.398;9.646;2022-12-31T02:40:14;0.83;;;0.70;;
8159;SDS011;27404;52.398;9.646;2022-12-31T02:42:43;1.10;;;0.77;;
8159;SDS011;27404;52.398;9.646;2022-12-31T02:45:09;1.20;;;0.80;;
8159;SDS011;27404;52.398;9.646;2022-12-31T02:50:31;1.30;;;0.97;;
8159;SDS011;27404;52.398;9.646;2022-12-31T03:01:42;1.63;;;0.93;;
8159;SDS011;27404;52.398;9.646;2022-12-31T03:04:28;0.87;;;0.57;;
8159;SDS011;27404;52.398;9.646;2022-12-31T03:07:10;0.70;;;0.50;;
8159;SDS011;27404;52.398;9.646;2022-12-31T03:09:38;1.70;;;0.80;;
8159;SDS011;27404;52.398;9.646;2022-12-31T03:12:04;2.33;;;0.70;;
8159;SDS011;27404;52.398;9.646;2022-12-31T03:14:51;5.80;;;0.80;;
8159;SDS011;27404;52.398;9.646;2022-12-31T03:17:17;1.80;;;0.73;;
8159;SDS011;27404;52.398;9.646;2022-12-31T03:19:42;1.00;;;0.60;;
8159;SDS011;27404;52.398;9.646;2022-12-31T03:22:27;2.03;;;0.60;;
8159;SDS011;27404;52.398;9.646;2022-12-31T03:24:53;0.70;;;0.50;;
8159;SDS011;27404;52.398;9.646;2022-12-31T03:27:37;2.83;;;0.90;;
8159;SDS011;27404;52.398;9.646;2022-12-31T03:30:03;0.90;;;0.50;;
8159;SDS011;27404;52.398;9.646;2022-12-31T03:32:29;0.70;;;0.50;;
8159;SDS011;27404;52.398;9.646;2022-12-31T03:34:54;1.43;;;0.63;;
8159;SDS011;27404;52.398;9.646;2022-12-31T03:37:20;0.90;;;0.50;;
8159;SDS011;27404;52.398;9.646;2022-12-31T03:39:45;1.83;;;0.60;;
8159;SDS011;27404;52.398;9.646;2022-12-31T03:42:11;0.80;;;0.50;;
8159;SDS011;27404;52.398;9.646;2022-12-31T03:44:36;1.00;;;0.53;;
8159;SDS011;27404;52.398;9.646;2022-12-31T03:47:02;2.93;;;0.83;;
8159;SDS011;27404;52.398;9.646;2022-12-31T03:49:27;1.00;;;0.50;;
8159;SDS011;27404;52.398;9.646;2022-12-31T03:51:52;0.53;;;0.37;;
8159;SDS011;27404;52.398;9.646;2022-12-31T03:54:18;1.70;;;0.40;;
8159;SDS011;27404;52.398;9.646;2022-12-31T03:56:43;0.70;;;0.30;;
8159;SDS011;27404;52.398;9.646;2022-12-31T03:59:09;1.73;;;0.30;;
8159;SDS011;27404;52.398;9.646;2022-12-31T04:01:34;0.93;;;0.50;;
8159;SDS011;27404;52.398;9.646;2022-12-31T04:04:00;1.00;;;0.60;;
8159;SDS011;27404;52.398;9.646;2022-12-31T04:06:25;0.90;;;0.50;;
8159;SDS011;27404;52.398;9.646;2022-12-31T04:08:51;0.40;;;0.40;;
8159;SDS011;27404;52.398;9.646;2022-12-31T04:11:16;1.10;;;0.40;;
8159;SDS011;27404;52.398;9.646;2022-12-31T04:13:41;0.83;;;0.50;;
8159;SDS011;27404;52.398;9.646;2022-12-31T04:16:07;1.40;;;0.67;;
8159;SDS011;27404;52.398;9.646;2022-12-31T04:18:32;1.53;;;0.80;;
8159;SDS011;27404;52.398;9.646;2022-12-31T04:21:01;0.60;;;0.40;;
8159;SDS011;27404;52.398;9.646;2022-12-31T04:23:27;1.33;;;0.60;;
8159;SDS011;27404;52.398;9.646;2022-12-31T04:25:52;0.70;;;0.60;;
8159;SDS011;27404;52.398;9.646;2022-12-31T04:28:18;1.50;;;0.50;;
8159;SDS011;27404;52.398;9.646;2022-12-31T04:30:43;3.30;;;0.73;;
8159;SDS011;27404;52.398;9.646;2022-12-31T04:33:09;2.30;;;0.60;;
8159;SDS011;27404;52.398;9.646;2022-12-31T04:35:34;1.70;;;0.67;;
8159;SDS011;27404;52.398;9.646;2022-12-31T04:37:59;1.47;;;0.60;;
8159;SDS011;27404;52.398;9.646;2022-12-31T04:40:25;1.27;;;0.50;;
8159;SDS011;27404;52.398;9.646;2022-12-31T04:42:50;0.77;;;0.43;;
8159;SDS011;27404;52.398;9.646;2022-12-31T04:45:16;2.33;;;0.67;;
8159;SDS011;27404;52.398;9.646;2022-12-31T04:47:41;0.70;;;0.50;;
8159;SDS011;27404;52.398;9.646;2022-12-31T04:50:07;0.80;;;0.57;;
8159;SDS011;27404;52.398;9.646;2022-12-31T04:52:32;0.77;;;0.50;;
8159;SDS011;27404;52.398;9.646;2022-12-31T04:54:58;1.60;;;0.63;;
8159;SDS011;27404;52.398;9.646;2022-12-31T04:57:23;1.20;;;0.60;;
8159;SDS011;27404;52.398;9.646;2022-12-31T04:59:49;1.57;;;0.60;;
8159;SDS011;27404;52.398;9.646;2022-12-31T05:02:14;0.37;;;0.30;;
8159;SDS011;27404;52.398;9.646;2022-12-31T05:04:40;1.10;;;0.60;;
8159;SDS011;27404;52.398;9.646;2022-12-31T05:07:05;0.30;;;0.30;;
8159;SDS011;27404;52.398;9.646;2022-12-31T05:09:31;0.63;;;0.40;;
8159;SDS011;27404;52.398;9.646;2022-12-31T05:11:56;0.63;;;0.40;;
8159;SDS011;27404;52.398;9.646;2022-12-31T05:14:22;0.43;;;0.30;;
8159;SDS011;27404;52.398;9.646;2022-12-31T05:16:47;0.87;;;0.30;;
8159;SDS011;27404;52.398;9.646;2022-12-31T05:19:13;0.30;;;0.30;;
8159;SDS011;27404;52.398;9.646;2022-12-31T05:21:38;0.50;;;0.40;;
8159;SDS011;27404;52.398;9.646;2022-12-31T05:24:04;0.50;;;0.30;;
8159;SDS011;27404;52.398;9.646;2022-12-31T05:26:29;0.63;;;0.43;;
8159;SDS011;27404;52.398;9.646;2022-12-31T05:28:55;0.40;;;0.23;;
8159;SDS011;27404;52.398;9.646;2022-12-31T05:31:20;0.40;;;0.30;;
8159;SDS011;27404;52.398;9.646;2022-12-31T05:33:46;0.50;;;0.37;;
8159;SDS011;27404;52.398;9.646;2022-12-31T05:36:12;1.50;;;0.40;;
8159;SDS011;27404;52.398;9.646;2022-12-31T05:38:38;0.40;;;0.27;;
8159;SDS011;27404;52.398;9.646;2022-12-31T05:41:05;0.40;;;0.40;;
8159;SDS011;27404;52.398;9.646;2022-12-31T05:43:32;0.30;;;0.30;;
8159;SDS011;27404;52.398;9.646;2022-12-31T05:46:01;0.70;;;0.37;;
8159;SDS011;27404;52.398;9.646;2022-12-31T05:48:28;0.60;;;0.40;;
8159;SDS011;27404;52.398;9.646;2022-12-31T05:50:54;0.50;;;0.27;;
8159;SDS011;27404;52.398;9.646;2022-12-31T05:53:20;1.33;;;0.40;;
8159;SDS011;27404;52.398;9.646;2022-12-31T05:55:46;0.50;;;0.30;;
8159;SDS011;27404;52.398;9.646;2022-12-31T05:58:12;1.50;;;0.90;;
8159;SDS011;27404;52.398;9.646;2022-12-31T06:00:39;0.70;;;0.50;;
8159;SDS011;27404;52.398;9.646;2022-12-31T06:03:05;1.00;;;0.50;;
8159;SDS011;27404;52.398;9.646;2022-12-31T06:05:31;0.80;;;0.27;;
8159;SDS011;27404;52.398;9.646;2022-12-31T06:07:56;0.30;;;0.20;;
8159;SDS011;27404;52.398;9.646;2022-12-31T06:10:21;1.20;;;0.20;;
8159;SDS011;27404;52.398;9.646;2022-12-31T06:12:47;0.43;;;0.30;;
8159;SDS011;27404;52.398;9.646;2022-12-31T06:15:12;0.70;;;0.40;;
8159;SDS011;27404;52.398;9.646;2022-12-31T06:17:38;1.73;;;0.50;;
8159;SDS011;27404;52.398;9.646;2022-12-31T06:20:03;0.60;;;0.30;;
8159;SDS011;27404;52.398;9.646;2022-12-31T06:22:29;0.53;;;0.40;;
8159;SDS011;27404;52.398;9.646;2022-12-31T06:24:55;0.57;;;0.53;;
8159;SDS011;27404;52.398;9.646;2022-12-31T06:27:20;0.33;;;0.30;;
8159;SDS011;27404;52.398;9.646;2022-12-31T06:29:46;1.00;;;0.50;;
8159;SDS011;27404;52.398;9.646;2022-12-31T06:32:12;1.17;;;0.90;;
8159;SDS011;27404;52.398;9.646;2022-12-31T06:34:37;0.83;;;0.60;;
8159;SDS011;27404;52.398;9.646;2022-12-31T06:37:03;1.13;;;0.60;;
8159;SDS011;27404;52.398;9.646;2022-12-31T06:39:28;1.40;;;0.60;;
8159;SDS011;27404;52.398;9.646;2022-12-31T06:41:54;0.63;;;0.40;;
8159;SDS011;27404;52.398;9.646;2022-12-31T06:44:19;1.30;;;0.50;;
8159;SDS011;27404;52.398;9.646;2022-12-31T06:46:46;0.60;;;0.50;;
8159;SDS011;27404;52.398;9.646;2022-12-31T06:49:12;0.30;;;0.30;;
8159;SDS011;27404;52.398;9.646;2022-12-31T06:51:38;0.70;;;0.40;;
8159;SDS011;27404;52.398;9.646;2022-12-31T06:54:03;0.67;;;0.43;;
8159;SDS011;27404;52.398;9.646;2022-12-31T06:56:29;1.53;;;0.87;;
8159;SDS011;27404;52.398;9.646;2022-12-31T06:58:54;1.17;;;0.80;;
8159;SDS011;27404;52.398;9.646;2022-12-31T07:01:36;0.50;;;0.30;;
8159;SDS011;27404;52.398;9.646;2022-12-31T07:17:57;2.23;;;1.53;;
8159;SDS011;27404;52.398;9.646;2022-12-31T07:20:35;1.60;;;0.47;;
8159;SDS011;27404;52.398;9.646;2022-12-31T07:23:00;3.40;;;0.60;;
8159;SDS011;27404;52.398;9.646;2022-12-31T07:25:26;0.80;;;0.40;;
8159;SDS011;27404;52.398;9.646;2022-12-31T07:33:32;1.27;;;0.80;;
8159;SDS011;27404;52.398;9.646;2022-12-31T07:39:31;2.07;;;1.20;;
8159;SDS011;27404;52.398;9.646;2022-12-31T07:45:23;2.40;;;1.27;;
8159;SDS011;27404;52.398;9.646;2022-12-31T07:47:58;4.33;;;2.23;;
8159;SDS011;27404;52.398;9.646;2022-12-31T07:50:23;3.83;;;2.13;;
8159;SDS011;27404;52.398;9.646;2022-12-31T07:52:49;2.47;;;1.70;;
8159;SDS011;27404;52.398;9.646;2022-12-31T07:55:15;1.27;;;0.80;;
8159;SDS011;27404;52.398;9.646;2022-12-31T07:58:02;2.43;;;1.83;;
8159;SDS011;27404;52.398;9.646;2022-12-31T08:00:30;2.10;;;1.40;;
8159;SDS011;27404;52.398;9.646;2022-12-31T08:13:43;2.90;;;1.20;;
8159;SDS011;27404;52.398;9.646;2022-12-31T08:16:10;1.90;;;1.00;;
8159;SDS011;27404;52.398;9.646;2022-12-31T08:18:36;2.10;;;1.33;;
8159;SDS011;27404;52.398;9.646;2022-12-31T08:23:59;3.10;;;1.63;;
8159;SDS011;27404;52.398;9.646;2022-12-31T08:29:40;1.93;;;1.30;;
8159;SDS011;27404;52.398;9.646;2022-12-31T08:32:17;2.67;;;1.30;;
8159;SDS011;27404;52.398;9.646;2022-12-31T08:37:41;1.53;;;0.80;;
8159;SDS011;27404;52.398;9.646;2022-12-31T08:45:49;1.10;;;0.70;;
8159;SDS011;27404;52.398;9.646;2022-12-31T08:50:47;1.10;;;0.70;;
8159;SDS011;27404;52.398;9.646;2022-12-31T08:53:13;1.10;;;0.80;;
8159;SDS011;27404;52.398;9.646;2022-12-31T08:55:40;1.47;;;0.90;;
8159;SDS011;27404;52.398;9.646;2022-12-31T09:00:58;2.30;;;0.97;;
8159;SDS011;27404;52.398;9.646;2022-12-31T09:06:08;1.70;;;1.00;;
8159;SDS011;27404;52.398;9.646;2022-12-31T09:08:57;1.30;;;0.80;;
8159;SDS011;27404;52.398;9.646;2022-12-31T09:12:07;1.27;;;0.90;;
8159;SDS011;27404;52.398;9.646;2022-12-31T09:14:39;4.90;;;2.93;;
8159;SDS011;27404;52.398;9.646;2022-12-31T09:20:03;1.60;;;1.07;;
8159;SDS011;27404;52.398;9.646;2022-12-31T09:22:30;2.23;;;1.40;;
8159;SDS011;27404;52.398;9.646;2022-12-31T09:24:56;3.77;;;1.57;;
8159;SDS011;27404;52.398;9.646;2022-12-31T09:30:12;2.60;;;1.40;;
8159;SDS011;27404;52.398;9.646;2022-12-31T09:38:01;4.07;;;1.63;;
8159;SDS011;27404;52.398;9.646;2022-12-31T09:40:47;2.60;;;1.37;;
8159;SDS011;27404;52.398;9.646;2022-12-31T09:46:25;3.47;;;1.30;;
8159;SDS011;27404;52.398;9.646;2022-12-31T09:55:26;2.87;;;1.10;;
8159;SDS011;27404;52.398;9.646;2022-12-31T10:01:12;1.63;;;1.00;;
8159;SDS011;27404;52.398;9.646;2022-12-31T10:04:05;2.13;;;1.07;;
8159;SDS011;27404;52.398;9.646;2022-12-31T10:26:35;1.23;;;0.43;;
8159;SDS011;27404;52.398;9.646;2022-12-31T10:28:30;4.40;;;0.80;;
8159;SDS011;27404;52.398;9.646;2022-12-31T10:37:15;2.40;;;0.70;;
8159;SDS011;27404;52.398;9.646;2022-12-31T10:45:07;1.13;;;0.40;;
8159;SDS011;27404;52.398;9.646;2022-12-31T10:54:28;2.57;;;0.77;;
8159;SDS011;27404;52.398;9.646;2022-12-31T10:56:48;3.97;;;0.50;;
8159;SDS011;27404;52.398;9.646;2022-12-31T11:11:01;2.57;;;0.70;;
8159;SDS011;27404;52.398;9.646;2022-12-31T11:18:56;1.60;;;0.43;;
8159;SDS011;27404;52.398;9.646;2022-12-31T11:27:37;1.70;;;0.87;;
8159;SDS011;27404;52.398;9.646;2022-12-31T11:30:21;2.63;;;1.13;;
8159;SDS011;27404;52.398;9.646;2022-12-31T11:38:23;1.73;;;0.70;;
8159;SDS011;27404;52.398;9.646;2022-12-31T11:41:02;3.60;;;0.80;;
8159;SDS011;27404;52.398;9.646;2022-12-31T11:43:36;3.50;;;1.10;;
8159;SDS011;27404;52.398;9.646;2022-12-31T11:57:38;4.63;;;0.97;;
8159;SDS011;27404;52.398;9.646;2022-12-31T12:00:15;2.50;;;1.10;;
8159;SDS011;27404;52.398;9.646;2022-12-31T12:02:44;2.67;;;1.00;;
8159;SDS011;27404;52.398;9.646;2022-12-31T12:05:13;2.70;;;1.00;;
8159;SDS011;27404;52.398;9.646;2022-12-31T12:07:41;2.33;;;1.40;;
8159;SDS011;27404;52.398;9.646;2022-12-31T12:10:16;3.47;;;1.47;;
8159;SDS011;27404;52.398;9.646;2022-12-31T12:12:48;4.13;;;1.30;;
8159;SDS011;27404;52.398;9.646;2022-12-31T12:15:20;3.00;;;1.40;;
8159;SDS011;27404;52.398;9.646;2022-12-31T12:21:15;4.57;;;1.50;;
8159;SDS011;27404;52.398;9.646;2022-12-31T12:26:34;5.20;;;1.47;;
8159;SDS011;27404;52.398;9.646;2022-12-31T12:31:34;2.60;;;1.43;;
8159;SDS011;27404;52.398;9.646;2022-12-31T12:34:00;3.23;;;1.20;;
8159;SDS011;27404;52.398;9.646;2022-12-31T12:36:25;2.43;;;1.53;;
8159;SDS011;27404;52.398;9.646;2022-12-31T12:39:01;5.57;;;1.50;;
8159;SDS011;27404;52.398;9.646;2022-12-31T12:41:30;4.23;;;1.70;;
8159;SDS011;27404;52.398;9.646;2022-12-31T12:44:03;3.20;;;1.63;;
8159;SDS011;27404;52.398;9.646;2022-12-31T12:46:30;3.80;;;1.90;;
8159;SDS011;27404;52.398;9.646;2022-12-31T12:49:30;3.37;;;1.77;;
8159;SDS011;27404;52.398;9.646;2022-12-31T12:52:14;5.80;;;1.30;;
8159;SDS011;27404;52.398;9.646;2022-12-31T13:00:32;4.37;;;1.10;;
8159;SDS011;27404;52.398;9.646;2022-12-31T13:06:19;2.90;;;0.80;;
8159;SDS011;27404;52.398;9.646;2022-12-31T13:27:43;2.20;;;0.80;;
8159;SDS011;27404;52.398;9.646;2022-12-31T13:30:24;4.60;;;1.00;;
8159;SDS011;27404;52.398;9.646;2022-12-31T13:32:58;2.40;;;0.87;;
8159;SDS011;27404;52.398;9.646;2022-12-31T13:38:16;3.50;;;1.10;;
8159;SDS011;27404;52.398;9.646;2022-12-31T13:40:50;1.50;;;0.80;;
8159;SDS011;27404;52.398;9.646;2022-12-31T13:43:34;5.03;;;1.10;;
8159;SDS011;27404;52.398;9.646;2022-12-31T13:46:08;2.80;;;1.00;;
8159;SDS011;27404;52.398;9.646;2022-12-31T13:48:45;5.43;;;0.60;;
8159;SDS011;27404;52.398;9.646;2022-12-31T13:54:11;2.67;;;0.90;;
8159;SDS011;27404;52.398;9.646;2022-12-31T13:56:46;2.17;;;0.73;;
8159;SDS011;27404;52.398;9.646;2022-12-31T13:59:16;1.33;;;0.70;;
8159;SDS011;27404;52.398;9.646;2022-12-31T14:05:31;1.57;;;0.80;;
8159;SDS011;27404;52.398;9.646;2022-12-31T14:07:43;3.17;;;0.90;;
8159;SDS011;27404;52.398;9.646;2022-12-31T14:23:56;2.67;;;1.30;;
8159;SDS011;27404;52.398;9.646;2022-12-31T14:26:34;3.57;;;0.80;;
8159;SDS011;27404;52.398;9.646;2022-12-31T14:37:06;2.90;;;0.70;;
8159;SDS011;27404;52.398;9.646;2022-12-31T14:48:28;2.93;;;0.70;;
8159;SDS011;27404;52.398;9.646;2022-12-31T14:51:02;4.13;;;0.80;;
8159;SDS011;27404;52.398;9.646;2022-12-31T14:53:29;1.43;;;0.77;;
8159;SDS011;27404;52.398;9.646;2022-12-31T14:56:02;4.80;;;0.63;;
8159;SDS011;27404;52.398;9.646;2022-12-31T15:00:55;5.67;;;1.00;;
8159;SDS011;27404;52.398;9.646;2022-12-31T15:03:25;2.70;;;1.03;;
8159;SDS011;27404;52.398;9.646;2022-12-31T15:11:56;1.93;;;0.87;;
8159;SDS011;27404;52.398;9.646;2022-12-31T15:17:23;3.33;;;1.23;;
8159;SDS011;27404;52.398;9.646;2022-12-31T15:20:10;4.57;;;0.70;;
8159;SDS011;27404;52.398;9.646;2022-12-31T15:28:02;2.17;;;1.00;;
8159;SDS011;27404;52.398;9.646;2022-12-31T15:33:05;3.13;;;1.10;;
8159;SDS011;27404;52.398;9.646;2022-12-31T15:35:50;2.73;;;1.00;;
8159;SDS011;27404;52.398;9.646;2022-12-31T15:38:34;3.00;;;1.30;;
8159;SDS011;27404;52.398;9.646;2022-12-31T15:41:24;4.20;;;1.17;;
8159;SDS011;27404;52.398;9.646;2022-12-31T15:44:05;2.50;;;1.10;;
8159;SDS011;27404;52.398;9.646;2022-12-31T15:46:39;1.97;;;0.87;;
8159;SDS011;27404;52.398;9.646;2022-12-31T15:49:11;2.20;;;1.07;;
8159;SDS011;27404;52.398;9.646;2022-12-31T15:51:42;3.07;;;1.40;;
8159;SDS011;27404;52.398;9.646;2022-12-31T15:57:03;4.07;;;1.40;;
8159;SDS011;27404;52.398;9.646;2022-12-31T15:59:31;2.73;;;0.97;;
8159;SDS011;27404;52.398;9.646;2022-12-31T16:01:56;3.67;;;1.00;;
8159;SDS011;27404;52.398;9.646;2022-12-31T16:04:26;2.30;;;0.93;;
8159;SDS011;27404;52.398;9.646;2022-12-31T16:07:01;3.73;;;1.10;;
8159;SDS011;27404;52.398;9.646;2022-12-31T16:09:29;3.53;;;1.00;;
8159;SDS011;27404;52.398;9.646;2022-12-31T16:11:58;2.60;;;1.10;;
8159;SDS011;27404;52.398;9.646;2022-12-31T16:14:29;4.37;;;1.13;;
8159;SDS011;27404;52.398;9.646;2022-12-31T16:16:59;5.63;;;1.17;;
8159;SDS011;27404;52.398;9.646;2022-12-31T16:19:30;3.03;;;1.10;;
8159;SDS011;27404;52.398;9.646;2022-12-31T16:22:41;2.50;;;0.90;;
8159;SDS011;27404;52.398;9.646;2022-12-31T16:24:59;4.17;;;1.20;;
8159;SDS011;27404;52.398;9.646;2022-12-31T16:27:26;3.13;;;1.13;;
8159;SDS011;27404;52.398;9.646;2022-12-31T16:29:57;3.60;;;1.30;;
8159;SDS011;27404;52.398;9.646;2022-12-31T16:32:24;4.83;;;1.37;;
8159;SDS011;27404;52.398;9.646;2022-12-31T16:34:50;5.03;;;1.50;;
8159;SDS011;27404;52.398;9.646;2022-12-31T16:37:19;5.60;;;1.10;;
8159;SDS011;27404;52.398;9.646;2022-12-31T16:42:26;7.23;;;1.90;;
8159;SDS011;27404;52.398;9.646;2022-12-31T16:44:53;3.07;;;1.27;;
8159;SDS011;27404;52.398;9.646;2022-12-31T16:47:24;8.50;;;1.13;;
8159;SDS011;27404;52.398;9.646;2022-12-31T16:50:00;3.37;;;1.63;;
8159;SDS011;27404;52.398;9.646;2022-12-31T16:52:31;4.47;;;1.50;;
8159;SDS011;27404;52.398;9.646;2022-12-31T16:54:59;3.53;;;1.40;;
8159;SDS011;27404;52.398;9.646;2022-12-31T16:57:26;3.73;;;1.30;;
8159;SDS011;27404;52.398;9.646;2022-12-31T16:59:58;4.03;;;1.17;;
8159;SDS011;27404;52.398;9.646;2022-12-31T17:02:31;3.57;;;1.30;;
8159;SDS011;27404;52.398;9.646;2022-12-31T17:05:03;5.50;;;1.53;;
8159;SDS011;27404;52.398;9.646;2022-12-31T17:12:32;4.23;;;1.50;;
8159;SDS011;27404;52.398;9.646;2022-12-31T17:15:03;5.90;;;1.90;;
8159;SDS011;27404;52.398;9.646;2022-12-31T17:17:30;5.17;;;1.30;;
8159;SDS011;27404;52.398;9.646;2022-12-31T17:20:00;3.33;;;1.60;;
8159;SDS011;27404;52.398;9.646;2022-12-31T17:22:47;7.20;;;3.07;;
8159;SDS011;27404;52.398;9.646;2022-12-31T17:27:50;5.10;;;1.90;;
8159;SDS011;27404;52.398;9.646;2022-12-31T17:33:01;6.77;;;2.90;;
8159;SDS011;27404;52.398;9.646;2022-12-31T17:35:36;2.70;;;1.93;;
8159;SDS011;27404;52.398;9.646;2022-12-31T17:43:18;5.70;;;1.43;;
8159;SDS011;27404;52.398;9.646;2022-12-31T17:45:46;7.43;;;1.43;;
8159;SDS011;27404;52.398;9.646;2022-12-31T17:48:16;3.70;;;1.20;;
8159;SDS011;27404;52.398;9.646;2022-12-31T17:50:46;2.17;;;1.10;;
8159;SDS011;27404;52.398;9.646;2022-12-31T17:53:14;3.50;;;1.10;;
8159;SDS011;27404;52.398;9.646;2022-12-31T17:55:40;2.40;;;1.00;;
8159;SDS011;27404;52.398;9.646;2022-12-31T17:58:13;2.30;;;1.30;;
8159;SDS011;27404;52.398;9.646;2022-12-31T18:00:42;6.30;;;3.53;;
8159;SDS011;27404;52.398;9.646;2022-12-31T18:03:08;6.80;;;2.13;;
8159;SDS011;27404;52.398;9.646;2022-12-31T18:05:33;5.23;;;2.83;;
8159;SDS011;27404;52.398;9.646;2022-12-31T18:07:59;4.97;;;1.70;;
8159;SDS011;27404;52.398;9.646;2022-12-31T18:10:24;2.87;;;1.63;;
8159;SDS011;27404;52.398;9.646;2022-12-31T18:12:53;3.27;;;2.27;;
8159;SDS011;27404;52.398;9.646;2022-12-31T18:15:20;5.77;;;1.83;;
8159;SDS011;27404;52.398;9.646;2022-12-31T18:17:46;5.23;;;3.07;;
8159;SDS011;27404;52.398;9.646;2022-12-31T18:20:13;4.57;;;2.00;;
8159;SDS011;27404;52.398;9.646;2022-12-31T18:22:39;3.37;;;1.63;;
8159;SDS011;27404;52.398;9.646;2022-12-31T18:25:08;6.13;;;2.00;;
8159;SDS011;27404;52.398;9.646;2022-12-31T18:27:37;3.60;;;1.60;;
8159;SDS011;27404;52.398;9.646;2022-12-31T18:30:05;4.53;;;1.70;;
8159;SDS011;27404;52.398;9.646;2022-12-31T18:32:32;4.87;;;1.47;;
8159;SDS011;27404;52.398;9.646;2022-12-31T18:34:58;5.87;;;2.00;;
8159;SDS011;27404;52.398;9.646;2022-12-31T18:37:23;3.33;;;1.70;;
8159;SDS011;27404;52.398;9.646;2022-12-31T18:39:49;4.63;;;1.90;;
8159;SDS011;27404;52.398;9.646;2022-12-31T18:42:15;6.00;;;2.30;;
8159;SDS011;27404;52.398;9.646;2022-12-31T18:44:42;4.97;;;1.93;;
8159;SDS011;27404;52.398;9.646;2022-12-31T18:47:18;4.23;;;1.43;;
8159;SDS011;27404;52.398;9.646;2022-12-31T18:49:47;4.03;;;1.30;;
8159;SDS011;27404;52.398;9.646;2022-12-31T18:52:14;4.60;;;1.73;;
8159;SDS011;27404;52.398;9.646;2022-12-31T18:54:42;4.40;;;1.27;;
8159;SDS011;27404;52.398;9.646;2022-12-31T18:57:09;2.77;;;1.13;;
8159;SDS011;27404;52.398;9.646;2022-12-31T18:59:35;5.13;;;1.80;;
8159;SDS011;27404;52.398;9.646;2022-12-31T19:02:01;7.77;;;2.63;;
8159;SDS011;27404;52.398;9.646;2022-12-31T19:04:26;6.90;;;2.50;;
8159;SDS011;27404;52.398;9.646;2022-12-31T19:06:52;3.13;;;1.47;;
8159;SDS011;27404;52.398;9.646;2022-12-31T19:09:17;2.47;;;1.00;;
8159;SDS011;27404;52.398;9.646;2022-12-31T19:11:43;4.97;;;1.40;;
8159;SDS011;27404;52.398;9.646;2022-12-31T19:14:18;3.67;;;1.23;;
8159;SDS011;27404;52.398;9.646;2022-12-31T19:16:47;4.90;;;1.10;;
8159;SDS011;27404;52.398;9.646;2022-12-31T19:19:14;4.10;;;1.30;;
8159;SDS011;27404;52.398;9.646;2022-12-31T19:21:40;4.57;;;1.50;;
8159;SDS011;27404;52.398;9.646;2022-12-31T19:24:18;3.03;;;1.27;;
8159;SDS011;27404;52.398;9.646;2022-12-31T19:26:49;4.00;;;1.27;;
8159;SDS011;27404;52.398;9.646;2022-12-31T19:29:15;3.33;;;2.87;;
8159;SDS011;27404;52.398;9.646;2022-12-31T19:31:42;3.33;;;1.43;;
8159;SDS011;27404;52.398;9.646;2022-12-31T19:34:08;4.57;;;1.97;;
8159;SDS011;27404;52.398;9.646;2022-12-31T19:36:34;3.27;;;1.37;;
8159;SDS011;27404;52.398;9.646;2022-12-31T19:39:00;5.00;;;1.40;;
8159;SDS011;27404;52.398;9.646;2022-12-31T19:41:27;7.63;;;1.53;;
8159;SDS011;27404;52.398;9.646;2022-12-31T19:43:53;6.10;;;2.23;;
8159;SDS011;27404;52.398;9.646;2022-12-31T19:46:18;5.27;;;1.90;;
8159;SDS011;27404;52.398;9.646;2022-12-31T19:48:44;3.73;;;1.30;;
8159;SDS011;27404;52.398;9.646;2022-12-31T19:51:10;7.40;;;2.57;;
8159;SDS011;27404;52.398;9.646;2022-12-31T19:53:40;5.73;;;1.47;;
8159;SDS011;27404;52.398;9.646;2022-12-31T19:56:08;4.27;;;1.73;;
8159;SDS011;27404;52.398;9.646;2022-12-31T19:58:36;5.97;;;1.20;;
8159;SDS011;27404;52.398;9.646;2022-12-31T20:01:02;3.17;;;1.50;;
8159;SDS011;27404;52.398;9.646;2022-12-31T20:03:28;5.20;;;1.50;;
8159;SDS011;27404;52.398;9.646;2022-12-31T20:06:05;8.57;;;2.23;;
8159;SDS011;27404;52.398;9.646;2022-12-31T20:08:33;5.27;;;1.23;;
8159;SDS011;27404;52.398;9.646;2022-12-31T20:11:05;3.93;;;1.00;;
8159;SDS011;27404;52.398;9.646;2022-12-31T20:13:42;6.03;;;1.50;;
8159;SDS011;27404;52.398;9.646;2022-12-31T20:16:08;6.73;;;1.30;;
8159;SDS011;27404;52.398;9.646;2022-12-31T20:18:36;4.60;;;1.40;;
8159;SDS011;27404;52.398;9.646;2022-12-31T20:21:02;3.17;;;1.40;;
8159;SDS011;27404;52.398;9.646;2022-12-31T20:23:31;7.60;;;1.27;;